Time;durP1;ratioP1;P1;durP2;ratioP2;P2;SDS_P1;SDS_P2;PMS_P1;PMS_P2;Temp;Humidity;BMP_temperature;BMP_pressure;BME280_temperature;BME280_humidity;BME280_pressure;Samples;Min_cycle;Max_cycle;Signal;HPM_P1;HPM_P2
2023/06/05 00:02:05;;;;;;;21.85;8.98;;;;;;;16.27;100.00;98697.22;4930274;29;20066;-95
2023/06/05 00:04:31;;;;;;;27.38;9.18;;;;;;;16.43;100.00;98722.28;4929788;29;20051;-93
2023/06/05 00:06:57;;;;;;;20.10;8.40;;;;;;;16.33;100.00;98696.00;4929440;29;20071;-95
2023/06/05 00:09:26;;;;;;;16.80;8.50;;;;;;;16.26;100.00;98708.03;4931415;29;20044;-95
2023/06/05 00:11:52;;;;;;;19.77;8.90;;;;;;;16.28;100.00;98703.44;4929636;29;20071;-95
2023/06/05 00:14:19;;;;;;;19.25;8.32;;;;;;;16.27;100.00;98702.59;4929628;29;20051;-94
2023/06/05 00:16:45;;;;;;;18.50;8.60;;;;;;;16.46;100.00;98718.63;4929197;29;20052;-94
2023/06/05 00:19:12;;;;;;;22.02;9.27;;;;;;;16.35;100.00;98696.81;4929212;29;20050;-95
2023/06/05 00:21:38;;;;;;;20.00;8.10;;;;;;;16.38;100.00;98702.03;4928541;29;20070;-93
2023/06/05 00:24:05;;;;;;;22.17;8.55;;;;;;;16.32;100.00;98695.16;4927799;29;20059;-94
2023/06/05 00:26:31;;;;;;;17.42;8.18;;;;;;;16.31;100.00;98698.81;4928908;29;20498;-94
2023/06/05 00:28:57;;;;;;;21.55;9.57;;;;;;;16.37;100.00;98703.84;4928826;29;20055;-94
2023/06/05 00:31:22;;;;;;;17.40;8.43;;;;;;;16.29;100.00;98691.78;4928695;29;20074;-94
2023/06/05 00:33:49;;;;;;;17.98;8.55;;;;;;;16.26;100.00;98697.28;4928698;29;20052;-95
2023/06/05 00:36:18;;;;;;;20.83;8.50;;;;;;;16.29;100.00;98700.69;4929008;29;20054;-95
2023/06/05 00:38:45;;;;;;;25.88;8.98;;;;;;;16.35;100.00;98707.53;4928546;29;20043;-94
2023/06/05 00:41:10;;;;;;;19.85;9.77;;;;;;;16.20;100.00;98687.75;4929260;29;20059;-94
2023/06/05 00:43:37;;;;;;;21.00;8.50;;;;;;;16.26;100.00;98697.28;4928626;29;20052;-94
2023/06/05 00:46:04;;;;;;;23.33;8.82;;;;;;;16.28;100.00;98698.94;4928786;29;20058;-96
2023/06/05 00:48:32;;;;;;;21.13;8.65;;;;;;;16.27;100.00;98696.34;4928690;29;20052;-94
2023/06/05 00:50:59;;;;;;;23.13;9.35;;;;;;;16.34;100.00;98703.13;4928552;29;20553;-94
2023/06/05 00:53:27;;;;;;;19.35;8.88;;;;;;;16.47;100.00;98714.97;4928220;29;20091;-94
2023/06/05 00:55:54;;;;;;;21.90;8.60;;;;;;;16.44;100.00;98725.88;4928117;29;20040;-95
2023/06/05 00:58:20;;;;;;;18.90;8.82;;;;;;;16.40;100.00;98726.97;4927815;29;20055;-95
2023/06/05 01:00:49;;;;;;;19.33;9.23;;;;;;;16.34;100.00;98712.03;4927304;29;20111;-92
2023/06/05 01:03:16;;;;;;;21.45;8.52;;;;;;;16.19;100.00;98692.22;4927883;29;20052;-95
2023/06/05 01:05:43;;;;;;;18.83;9.25;;;;;;;16.09;100.00;98703.50;4928335;29;20043;-94
2023/06/05 01:08:12;;;;;;;23.23;9.38;;;;;;;16.04;100.00;98689.47;4927754;29;20136;-94
2023/06/05 01:10:39;;;;;;;20.40;8.35;;;;;;;16.13;100.00;98705.09;4927961;29;20048;-95
2023/06/05 01:13:15;;;;;;;19.50;9.23;;;;;;;16.13;100.00;98705.94;4928596;29;20566;-94
2023/06/05 01:15:41;;;;;;;22.10;9.30;;;;;;;15.91;100.00;98683.84;4928083;29;20138;-93
2023/06/05 01:18:08;;;;;;;23.10;9.48;;;;;;;15.93;100.00;98690.00;4927831;29;20465;-94
2023/06/05 01:20:35;;;;;;;21.70;9.48;;;;;;;15.89;100.00;98681.25;4927498;29;20048;-94
2023/06/05 01:23:03;;;;;;;22.98;9.15;;;;;;;16.00;100.00;98694.13;4927836;29;20083;-94
2023/06/05 01:25:29;;;;;;;27.63;10.20;;;;;;;16.06;100.00;98707.22;4927683;29;20398;-94
2023/06/05 01:28:00;;;;;;;24.02;9.57;;;;;;;15.96;100.00;98688.06;4928223;29;20079;-95
2023/06/05 01:30:34;;;;;;;24.85;10.73;;;;;;;15.82;100.00;98666.41;4928836;29;20156;-94
2023/06/05 01:33:06;;;;;;;28.85;10.90;;;;;;;15.89;100.00;98677.69;4917656;29;20071;-95
2023/06/05 01:38:38;;;;;;;27.13;10.82;;;;;;;15.91;100.00;98679.34;5100603;27;20375;-94
2023/06/05 01:41:05;;;;;;;26.02;11.10;;;;;;;15.79;100.00;98678.16;5099997;28;20532;-95
2023/06/05 01:43:35;;;;;;;27.08;11.23;;;;;;;15.74;100.00;98684.69;5101562;28;20074;-96
2023/06/05 01:46:01;;;;;;;30.25;12.50;;;;;;;15.75;100.00;98684.63;5101151;28;20048;-95
2023/06/05 01:48:28;;;;;;;29.45;10.93;;;;;;;15.85;100.00;98684.16;5100173;28;20048;-94
2023/06/05 01:50:55;;;;;;;28.58;10.55;;;;;;;15.90;100.00;98682.13;5098890;28;20131;-95
2023/06/05 01:53:22;;;;;;;28.38;11.85;;;;;;;15.87;100.00;98685.81;5099957;28;20055;-95
2023/06/05 01:55:52;;;;;;;35.60;12.73;;;;;;;15.95;100.00;98680.06;5098226;28;20054;-95
2023/06/05 01:58:18;;;;;;;32.53;12.02;;;;;;;15.91;100.00;98668.63;5099485;28;20044;-96
2023/06/05 02:00:45;;;;;;;32.03;12.05;;;;;;;16.04;100.00;98694.84;5098300;28;20048;-92
2023/06/05 02:03:11;;;;;;;29.88;11.55;;;;;;;16.09;100.00;98699.03;5098356;28;20050;-95
2023/06/05 02:05:38;;;;;;;29.30;11.10;;;;;;;16.06;100.00;98698.31;5099347;28;20044;-95
2023/06/05 02:08:05;;;;;;;33.00;12.65;;;;;;;15.88;100.00;98670.63;5098985;28;20048;-96
2023/06/05 02:10:31;;;;;;;36.33;14.40;;;;;;;15.97;100.00;98680.88;5098614;28;20055;-95
2023/06/05 02:12:58;;;;;;;33.38;14.15;;;;;;;15.94;100.00;98667.59;5098343;28;20036;-96
2023/06/05 02:15:25;;;;;;;42.60;13.73;;;;;;;15.87;100.00;98676.91;5098641;28;20044;-95
2023/06/05 02:17:53;;;;;;;34.53;13.02;;;;;;;15.92;100.00;98656.09;5099892;28;20119;-96
2023/06/05 02:20:21;;;;;;;38.03;13.70;;;;;;;16.15;100.00;98693.34;5098644;28;20067;-95
2023/06/05 02:22:51;;;;;;;35.03;13.90;;;;;;;16.11;100.00;98682.84;5098058;28;20142;-95
2023/06/05 02:25:17;;;;;;;35.08;13.23;;;;;;;16.05;100.00;98657.22;5098482;28;20044;-96
2023/06/05 02:27:44;;;;;;;32.15;13.50;;;;;;;15.98;100.00;98650.41;5097678;28;20041;-95
2023/06/05 02:30:12;;;;;;;38.67;13.30;;;;;;;16.06;100.00;98656.25;5098113;28;20044;-94
2023/06/05 02:32:43;;;;;;;30.20;12.77;;;;;;;16.09;100.00;98657.91;5097188;28;20040;-92
2023/06/05 02:35:10;;;;;;;38.65;12.75;;;;;;;16.07;100.00;98651.75;5097557;28;20448;-94
2023/06/05 02:37:43;;;;;;;29.60;14.00;;;;;;;16.07;100.00;98651.75;5096719;28;20048;-95
2023/06/05 02:40:11;;;;;;;30.08;12.23;;;;;;;16.02;100.00;98660.03;5097121;28;20051;-95
2023/06/05 02:42:37;;;;;;;29.20;12.30;;;;;;;15.99;100.00;98655.69;5098208;28;20051;-95
2023/06/05 02:45:04;;;;;;;30.15;12.68;;;;;;;15.94;100.00;98656.88;5097520;28;20040;-94
2023/06/05 02:47:31;;;;;;;36.28;13.75;;;;;;;16.03;100.00;98661.78;5095852;28;20041;-95
2023/06/05 02:49:58;;;;;;;31.02;11.88;;;;;;;16.00;100.00;98651.19;5083123;28;20044;-95
2023/06/05 02:52:25;;;;;;;28.90;11.90;;;;;;;16.28;100.00;98679.28;5083705;28;20054;-95
2023/06/05 02:54:51;;;;;;;28.27;11.80;;;;;;;16.11;100.00;98648.84;5082808;28;20098;-93
2023/06/05 02:57:17;;;;;;;31.10;12.05;;;;;;;16.12;100.00;98639.00;5083845;28;20047;-94
2023/06/05 02:59:43;;;;;;;31.75;12.90;;;;;;;16.21;100.00;98671.56;5083611;28;20048;-95
2023/06/05 03:02:10;;;;;;;29.92;11.18;;;;;;;16.08;100.00;98649.00;5083431;28;20101;-94
2023/06/05 03:04:40;;;;;;;25.50;10.88;;;;;;;16.15;100.00;98657.59;5083674;28;20044;-95
2023/06/05 03:07:08;;;;;;;29.35;12.80;;;;;;;16.27;100.00;98665.03;5083847;28;20040;-95
2023/06/05 03:09:34;;;;;;;32.00;12.80;;;;;;;16.13;100.00;98646.94;5083936;28;20040;-95
2023/06/05 03:12:00;;;;;;;30.92;12.68;;;;;;;16.02;100.00;98641.25;5082937;28;20157;-94
2023/06/05 03:14:27;;;;;;;31.52;11.95;;;;;;;15.98;100.00;98629.84;5082702;28;20045;-94
2023/06/05 03:16:53;;;;;;;29.60;12.70;;;;;;;16.03;100.00;98643.00;5083329;28;20072;-95
2023/06/05 03:19:20;;;;;;;31.92;12.93;;;;;;;16.22;100.00;98664.38;5084270;28;20525;-95
2023/06/05 03:21:49;;;;;;;33.85;13.93;;;;;;;16.07;100.00;98649.97;5082857;28;20044;-94
2023/06/05 03:24:15;;;;;;;31.00;12.23;;;;;;;16.04;100.00;98635.81;5082802;28;20045;-95
2023/06/05 03:26:43;;;;;;;36.00;13.30;;;;;;;16.01;100.00;98634.19;5081898;28;20049;-94
2023/06/05 03:29:10;;;;;;;37.33;12.68;;;;;;;16.03;100.00;98629.59;5082818;28;20041;-94
2023/06/05 03:31:37;;;;;;;35.20;13.45;;;;;;;16.04;100.00;98636.69;5083149;28;20049;-94
2023/06/05 03:34:03;;;;;;;36.13;13.15;;;;;;;16.14;100.00;98647.81;5083077;28;20102;-94
2023/06/05 03:36:30;;;;;;;34.78;12.82;;;;;;;16.06;100.00;98639.28;5081829;28;20106;-95
2023/06/05 03:38:57;;;;;;;29.70;12.90;;;;;;;16.07;100.00;98635.66;5082403;28;20143;-95
2023/06/05 03:41:23;;;;;;;35.55;12.88;;;;;;;16.06;100.00;98641.97;5082410;28;20053;-94
2023/06/05 03:43:49;;;;;;;31.50;13.40;;;;;;;16.22;100.00;98669.72;5081761;28;20045;-95
2023/06/05 03:46:18;;;;;;;34.50;12.73;;;;;;;16.06;100.00;98637.47;5082573;28;20525;-95
2023/06/05 03:48:44;;;;;;;27.45;12.13;;;;;;;16.12;100.00;98639.84;5082374;28;20072;-94
2023/06/05 03:51:11;;;;;;;36.40;14.50;;;;;;;16.15;100.00;98644.19;5082759;28;20486;-95
2023/06/05 03:53:39;;;;;;;30.35;12.32;;;;;;;16.19;100.00;98643.09;5083025;28;20045;-94
2023/06/05 03:56:08;;;;;;;29.60;12.73;;;;;;;16.21;100.00;98638.50;5083307;28;20048;-96
2023/06/05 03:58:34;;;;;;;;;;;;;;;16.41;100.00;98683.94;5083377;28;20044;-95
2023/06/05 04:01:00;;;;;;;31.33;12.85;;;;;;;16.23;100.00;98642.84;5081745;28;19911;-95
2023/06/05 04:03:27;;;;;;;33.78;12.38;;;;;;;16.34;100.00;98653.00;5083199;28;20049;-93
2023/06/05 04:05:53;;;;;;;29.50;11.98;;;;;;;16.35;100.00;98644.03;5083342;28;20045;-93
2023/06/05 04:08:19;;;;;;;32.20;12.23;;;;;;;16.37;100.00;98641.25;5081569;28;20048;-94
2023/06/05 04:10:45;;;;;;;28.80;12.15;;;;;;;16.36;100.00;98644.88;5082476;28;20112;-95
2023/06/05 04:13:13;;;;;;;35.22;13.43;;;;;;;16.39;100.00;98655.44;5082175;28;20080;-95
2023/06/05 04:15:39;;;;;;;24.80;11.40;;;;;;;16.42;100.00;98655.31;5081620;28;20098;-95
2023/06/05 04:18:05;;;;;;;26.40;11.20;;;;;;;16.46;100.00;98662.25;5080962;28;20036;-95
2023/06/05 04:20:31;;;;;;;30.15;12.25;;;;;;;16.54;100.00;98668.06;5081521;28;20072;-95
2023/06/05 04:22:57;;;;;;;29.88;11.43;;;;;;;16.51;100.00;98652.13;5082616;28;20067;-94
2023/06/05 04:25:23;;;;;;;32.20;11.82;;;;;;;16.51;100.00;98646.75;5084070;28;20146;-95
2023/06/05 04:27:51;;;;;;;31.05;12.23;;;;;;;16.49;100.00;98643.28;5083759;28;20045;-95
2023/06/05 04:30:19;;;;;;;28.65;12.27;;;;;;;16.50;100.00;98645.00;5082536;28;20131;-95
2023/06/05 04:32:53;;;;;;;28.13;11.70;;;;;;;16.46;100.00;98640.78;5082807;28;20490;-95
2023/06/05 04:35:23;;;;;;;33.53;12.38;;;;;;;16.55;100.00;98631.38;5082160;28;20112;-95
2023/06/05 04:37:50;;;;;;;30.73;12.38;;;;;;;16.78;100.00;98647.06;5081870;28;20063;-94
2023/06/05 04:40:19;;;;;;;28.23;12.25;;;;;;;16.79;100.00;98629.16;5081337;28;20052;-94
2023/06/05 04:42:45;;;;;;;34.10;12.57;;;;;;;16.95;100.00;98634.59;5081992;28;20056;-94
2023/06/05 04:45:11;;;;;;;29.63;12.35;;;;;;;17.06;100.00;98639.38;5082348;28;20119;-95
2023/06/05 04:47:39;;;;;;;31.08;11.75;;;;;;;17.13;100.00;98628.19;5082406;28;20422;-94
2023/06/05 04:50:06;;;;;;;27.50;11.38;;;;;;;17.15;100.00;98633.47;5082869;28;20421;-95
2023/06/05 04:52:33;;;;;;;23.15;10.52;;;;;;;17.24;100.00;98635.66;5082663;28;20044;-95
2023/06/05 04:55:01;;;;;;;24.05;11.20;;;;;;;17.17;100.00;98629.72;5083020;28;20164;-95
2023/06/05 04:57:27;;;;;;;30.58;11.38;;;;;;;17.14;100.00;98629.06;5084721;28;20071;-96
2023/06/05 04:59:53;;;;;;;28.33;11.93;;;;;;;16.95;100.00;98630.06;5082751;28;20056;-96
2023/06/05 05:02:20;;;;;;;22.90;10.90;;;;;;;17.01;100.00;98639.63;5081149;28;20040;-95
2023/06/05 05:04:48;;;;;;;22.98;10.07;;;;;;;17.14;100.00;98653.25;5081482;28;20051;-95
2023/06/05 05:07:16;;;;;;;31.48;10.75;;;;;;;17.16;100.00;98648.66;5081477;28;20508;-95
2023/06/05 05:09:42;;;;;;;24.02;10.15;;;;;;;17.09;100.00;98642.75;5082826;28;20044;-96
2023/06/05 05:12:09;;;;;;;27.30;10.93;;;;;;;17.26;100.00;98655.22;5082259;28;20144;-95
2023/06/05 05:14:36;;;;;;;24.75;10.77;;;;;;;17.31;100.00;98658.53;5084830;28;20048;-95
2023/06/05 05:17:02;;;;;;;23.30;11.00;;;;;;;17.27;100.00;98646.22;5082535;28;20048;-95
2023/06/05 05:19:28;;;;;;;24.98;10.73;;;;;;;17.22;100.00;98638.44;5081546;28;20041;-95
2023/06/05 05:21:56;;;;;;;23.75;11.20;;;;;;;17.40;100.00;98678.66;5082364;28;20036;-95
2023/06/05 05:24:23;;;;;;;26.88;12.40;;;;;;;17.36;100.00;98659.13;5082243;28;20052;-95
2023/06/05 05:26:49;;;;;;;24.92;10.20;;;;;;;17.39;100.00;98656.28;5081732;28;20135;-94
2023/06/05 05:29:15;;;;;;;22.15;10.45;;;;;;;17.49;100.00;98677.28;5080687;28;20048;-95
2023/06/05 05:31:41;;;;;;;27.17;10.65;;;;;;;17.50;100.00;98681.69;5080578;28;20075;-94
2023/06/05 05:34:07;;;;;;;22.95;9.88;;;;;;;17.46;100.00;98697.13;5081071;28;20044;-95
2023/06/05 05:36:33;;;;;;;24.98;10.98;;;;;;;17.23;100.00;98666.16;5079655;28;20071;-95
2023/06/05 05:39:01;;;;;;;22.30;10.10;;;;;;;17.06;100.00;98661.72;5081039;28;20119;-93
2023/06/05 05:41:27;;;;;;;30.55;10.43;;;;;;;17.00;100.00;98659.34;5080741;28;20070;-95
2023/06/05 05:43:53;;;;;;;29.55;11.20;;;;;;;17.09;100.00;98698.28;5080340;28;20517;-94
2023/06/05 05:46:19;;;;;;;23.77;10.80;;;;;;;17.08;100.00;98710.00;5080762;28;20045;-93
2023/06/05 05:48:45;;;;;;;24.85;10.90;;;;;;;16.88;100.00;98671.66;5081356;28;20037;-95
2023/06/05 05:51:11;;;;;;;29.85;11.10;;;;;;;17.04;100.00;98699.44;5080778;28;20098;-94
2023/06/05 05:53:37;;;;;;;27.60;10.80;;;;;;;16.89;100.00;98681.44;5081388;28;20047;-94
2023/06/05 05:56:05;;;;;;;27.55;11.40;;;;;;;16.94;100.00;98683.91;5080645;28;20108;-93
2023/06/05 05:58:31;;;;;;;26.98;10.85;;;;;;;16.87;100.00;98671.72;5081004;28;20402;-95
2023/06/05 06:00:59;;;;;;;26.30;10.93;;;;;;;16.88;100.00;98682.41;5080614;28;20063;-95
2023/06/05 06:03:27;;;;;;;21.30;10.07;;;;;;;16.72;100.00;98685.03;5080891;28;20044;-96
2023/06/05 06:05:53;;;;;;;25.00;10.55;;;;;;;16.73;100.00;98680.50;5080491;28;20413;-95
2023/06/05 06:08:20;;;;;;;28.05;11.05;;;;;;;16.72;100.00;98686.81;5079062;28;20040;-94
2023/06/05 06:10:46;;;;;;;25.48;10.23;;;;;;;16.72;100.00;98692.19;5079626;28;20044;-96
2023/06/05 06:13:14;;;;;;;24.08;10.68;;;;;;;16.90;100.00;98718.09;5078672;28;20580;-95
2023/06/05 06:15:40;;;;;;;25.02;10.52;;;;;;;16.73;100.00;98680.50;5077241;28;20044;-94
2023/06/05 06:18:06;;;;;;;24.48;10.30;;;;;;;16.83;100.00;98689.84;5079282;28;20135;-95
2023/06/05 06:20:34;;;;;;;24.23;9.82;;;;;;;17.00;100.00;98719.34;5080380;28;20052;-96
2023/06/05 06:23:00;;;;;;;28.40;11.45;;;;;;;16.79;100.00;98688.25;5080810;28;20052;-95
2023/06/05 06:25:28;;;;;;;30.20;11.13;;;;;;;16.83;100.00;98689.84;5084378;28;20048;-95
2023/06/05 06:27:54;;;;;;;27.42;10.75;;;;;;;17.04;100.00;98730.78;5084239;28;20036;-96
2023/06/05 06:30:22;;;;;;;28.23;11.20;;;;;;;16.86;100.00;98694.19;5083976;28;20070;-95
2023/06/05 06:32:48;;;;;;;29.25;11.38;;;;;;;16.92;100.00;98688.47;5084015;28;20049;-95
2023/06/05 06:35:14;;;;;;;30.02;11.65;;;;;;;17.21;100.00;98724.50;5081746;28;20054;-95
2023/06/05 06:37:40;;;;;;;27.20;12.32;;;;;;;17.01;100.00;98696.91;5078519;28;20044;-96
2023/06/05 06:40:10;;;;;;;33.47;12.68;;;;;;;17.06;100.00;98703.84;5080271;28;20045;-95
2023/06/05 06:42:36;;;;;;;35.72;13.77;;;;;;;17.03;100.00;98697.69;5079489;28;20126;-95
2023/06/05 06:45:04;;;;;;;34.47;12.82;;;;;;;17.20;100.00;98714.72;5084854;28;20048;-95
2023/06/05 06:47:32;;;;;;;29.80;12.02;;;;;;;17.13;100.00;98698.06;5084998;28;20060;-93
2023/06/05 06:49:58;;;;;;;31.42;11.82;;;;;;;17.27;100.00;98697.28;5086239;28;20041;-95
2023/06/05 06:52:24;;;;;;;31.08;12.70;;;;;;;17.40;100.00;98710.91;5085795;28;20139;-96
2023/06/05 06:54:50;;;;;;;29.45;12.25;;;;;;;17.45;100.00;98701.63;5085754;28;20049;-96
2023/06/05 06:57:16;;;;;;;31.58;12.43;;;;;;;17.47;100.00;98706.91;5086644;28;20051;-96
2023/06/05 07:12:46;;;;;;;27.17;10.98;;;;;;;18.09;100.00;98741.97;5684939;22;20051;-95
2023/06/05 07:15:14;;;;;;;27.25;11.70;;;;;;;18.06;100.00;98710.72;4997842;28;20043;-96
2023/06/05 07:17:41;;;;;;;27.85;13.07;;;;;;;18.20;100.00;98698.28;4979498;28;20071;-95
2023/06/05 07:20:10;;;;;;;24.70;11.65;;;;;;;18.45;100.00;98689.59;4977854;28;20046;-95
2023/06/05 07:22:37;;;;;;;24.15;11.45;;;;;;;19.00;100.00;98733.88;4978475;28;20094;-95
2023/06/05 07:25:05;;;;;;;22.42;10.45;;;;;;;18.97;100.00;98690.94;4977485;28;20106;-96
2023/06/05 07:27:32;;;;;;;23.25;10.98;;;;;;;19.08;100.00;98700.09;4975891;28;20038;-96
2023/06/05 07:30:00;;;;;;;23.65;10.88;;;;;;;19.34;100.00;98719.13;4975491;28;20050;-95
2023/06/05 07:32:26;;;;;;;20.67;10.90;;;;;;;19.40;100.00;98690.91;4975501;28;20476;-96
2023/06/05 07:34:52;;;;;;;22.80;10.52;;;;;;;19.50;100.00;98686.66;4973798;28;20074;-95
2023/06/05 07:37:19;;;;;;;22.70;10.70;;;;;;;19.63;100.00;98694.81;4974100;28;20047;-96
2023/06/05 07:39:46;;;;;;;22.40;10.45;;;;;;;19.92;100.00;98686.66;4972621;28;20046;-94
2023/06/05 07:42:13;;;;;;;20.38;9.30;;;;;;;19.82;100.00;98684.56;4971953;28;20046;-95
2023/06/05 07:44:39;;;;;;;20.83;10.10;;;;;;;19.99;100.00;98688.81;4972433;28;20051;-94
2023/06/05 07:47:07;;;;;;;25.55;10.80;;;;;;;20.05;100.00;98674.06;4972017;28;20039;-95
2023/06/05 07:49:33;;;;;;;21.08;10.50;;;;;;;20.17;100.00;98669.66;4971440;28;20046;-94
2023/06/05 07:51:59;;;;;;;19.13;9.95;;;;;;;20.56;100.00;98684.97;4970330;28;20075;-95
2023/06/05 07:54:25;;;;;;;21.65;10.55;;;;;;;20.78;100.00;98697.88;4967852;28;20441;-95
2023/06/05 07:56:51;;;;;;;22.80;11.48;;;;;;;20.93;100.00;98682.44;4968387;28;20146;-95
2023/06/05 07:59:24;;;;;;;21.40;10.07;;;;;;;21.09;100.00;98680.34;4969683;28;20046;-95
2023/06/05 08:01:51;;;;;;;19.70;10.02;;;;;;;21.46;100.00;98721.00;4970013;28;20051;-95
2023/06/05 08:04:19;;;;;;;19.25;9.57;;;;;;;21.39;100.00;98681.81;4968191;28;20051;-94
2023/06/05 08:06:45;;;;;;;21.63;10.15;;;;;;;21.32;100.00;98694.06;4968322;28;20118;-95
2023/06/05 08:09:12;;;;;;;19.52;9.77;;;;;;;20.90;100.00;98671.81;4968083;28;20054;-96
2023/06/05 08:11:38;;;;;;;16.67;8.50;;;;;;;20.88;100.00;98695.38;4967825;28;20043;-95
2023/06/05 08:14:06;;;;;;;18.67;9.30;;;;;;;20.82;100.00;98679.59;4983688;28;20081;-94
2023/06/05 08:16:32;;;;;;;17.50;8.98;;;;;;;20.84;100.00;98686.66;4988223;28;20038;-95
2023/06/05 08:18:58;;;;;;;15.70;8.55;;;;;;;20.65;100.00;98684.34;4988373;28;20057;-95
2023/06/05 08:21:25;;;;;;;17.10;8.40;;;;;;;20.57;100.00;98697.53;4985625;28;20058;-95
2023/06/05 08:23:51;;;;;;;16.92;8.25;;;;;;;20.40;100.00;98677.03;4987276;28;20077;-94
2023/06/05 08:26:20;;;;;;;17.33;8.98;;;;;;;20.46;100.00;98676.63;4985443;28;20056;-95
2023/06/05 08:28:46;;;;;;;16.58;8.77;;;;;;;20.51;100.00;98669.09;4985869;28;20046;-94
2023/06/05 08:31:11;;;;;;;15.55;8.98;;;;;;;20.65;100.00;98700.56;4985720;28;20051;-95
2023/06/05 08:33:38;;;;;;;15.40;7.97;;;;;;;20.60;100.00;98712.66;4985529;28;20058;-94
2023/06/05 08:36:05;;;;;;;16.13;8.70;;;;;;;20.27;100.00;98684.25;4985360;28;20136;-94
2023/06/05 08:38:35;;;;;;;19.38;9.52;;;;;;;20.04;100.00;98688.53;4985672;28;20493;-94
2023/06/05 08:41:02;;;;;;;17.85;8.73;;;;;;;19.92;100.00;98692.06;4985929;28;20042;-94
2023/06/05 08:43:29;;;;;;;18.67;9.93;;;;;;;19.73;100.00;98687.84;4987244;28;20058;-95
2023/06/05 08:45:57;;;;;;;19.77;9.63;;;;;;;19.61;100.00;98683.25;4985277;28;20057;-94
2023/06/05 08:48:24;;;;;;;;;;;;;;;19.80;100.00;98707.19;4986799;28;20053;-94
2023/06/05 08:50:51;;;;;;;20.70;10.27;;;;;;;19.42;100.00;98683.56;4985990;28;19925;-94
2023/06/05 08:53:17;;;;;;;16.08;9.40;;;;;;;19.22;100.00;98679.47;4985223;28;20398;-94
2023/06/05 08:55:55;;;;;;;18.08;9.68;;;;;;;19.20;100.00;98679.56;4987144;28;20109;-96
2023/06/05 08:58:22;;;;;;;18.13;9.93;;;;;;;19.32;100.00;98680.59;4986537;28;20086;-95
2023/06/05 09:00:49;;;;;;;20.40;10.30;;;;;;;19.45;100.00;98664.50;4987245;28;20054;-94
2023/06/05 09:03:19;;;;;;;20.55;10.77;;;;;;;19.44;100.00;98676.25;4986288;28;20046;-95
2023/06/05 09:05:46;;;;;;;19.63;10.48;;;;;;;19.47;100.00;98676.94;4985064;28;20122;-95
2023/06/05 09:08:14;;;;;;;19.65;9.40;;;;;;;19.49;100.00;98685.75;4984203;28;20608;-95
2023/06/05 09:10:40;;;;;;;20.23;9.45;;;;;;;19.26;100.00;98675.63;4984200;28;20057;-96
2023/06/05 09:13:09;;;;;;;17.45;8.90;;;;;;;19.38;100.00;98673.94;4985053;28;20046;-93
2023/06/05 09:15:35;;;;;;;;;;;;;;;20.01;100.00;98705.78;4985473;28;20050;-95
2023/06/05 09:18:07;;;;;;;18.80;10.27;;;;;;;20.36;100.00;98678.22;4985186;28;19922;-95
2023/06/05 09:20:34;;;;;;;20.58;9.00;;;;;;;20.84;100.00;98672.25;4986245;28;20476;-96
2023/06/05 09:23:01;;;;;;;20.40;9.90;;;;;;;21.03;100.00;98655.59;4984712;28;20050;-94
2023/06/05 09:25:29;;;;;;;11.77;6.85;;;;;;;21.20;100.00;98652.53;4984788;28;20042;-94
2023/06/05 09:28:08;;;;;;;12.65;6.10;;;;;;;21.46;100.00;98683.13;4984772;28;20049;-94
2023/06/05 09:30:55;;;;;;;13.98;6.40;;;;;;;21.31;100.00;98689.59;4984835;28;20046;-96
2023/06/05 09:33:21;;;;;;;14.48;6.03;;;;;;;21.05;100.00;98657.19;4984178;28;20419;-95
2023/06/05 09:35:47;;;;;;;11.07;5.90;;;;;;;21.20;100.00;98681.41;4983318;28;20046;-94
2023/06/05 09:38:26;;;;;;;11.23;6.15;;;;;;;21.28;100.00;98692.56;4982760;28;20042;-95
2023/06/05 09:40:53;;;;;;;11.02;6.30;;;;;;;21.16;100.00;98660.97;4982368;28;20046;-94
2023/06/05 09:43:22;;;;;;;12.63;6.78;;;;;;;21.25;100.00;98676.53;4982722;28;20137;-95
2023/06/05 09:45:48;;;;;;;12.15;6.78;;;;;;;21.82;100.00;98653.47;4981859;28;20576;-92
2023/06/05 09:48:15;;;;;;;12.93;6.53;;;;;;;21.65;100.00;98655.56;4981930;28;20123;-95
2023/06/05 09:50:42;;;;;;;14.82;6.47;;;;;;;21.65;100.00;98676.38;4982980;28;20046;-96
2023/06/05 09:53:09;;;;;;;14.93;6.97;;;;;;;21.27;100.00;98678.13;4980972;28;20043;-94
2023/06/05 09:55:36;;;;;;;12.43;6.85;;;;;;;21.34;100.00;98659.66;4980374;28;20048;-93
2023/06/05 09:58:13;;;;;;;13.35;6.57;;;;;;;21.77;100.00;98664.59;4990658;28;20112;-93
2023/06/05 10:00:41;;;;;;;14.32;6.78;;;;;;;22.73;100.00;98669.91;5002668;28;20133;-94
2023/06/05 10:03:13;;;;;;;13.85;6.05;;;;;;;22.99;100.00;98672.41;4998860;28;20046;-93
2023/06/05 10:05:42;;;;;;;12.00;6.78;;;;;;;22.46;100.00;98672.91;4996599;28;20070;-93
2023/06/05 10:08:10;;;;;;;13.15;5.88;;;;;;;22.66;100.00;98674.09;4982870;28;20071;-94
2023/06/05 10:10:37;;;;;;;11.45;5.97;;;;;;;23.10;99.49;98641.75;4983136;28;20051;-94
2023/06/05 10:13:03;;;;;;;10.93;5.70;;;;;;;23.11;99.30;98636.19;4988944;28;20140;-94
2023/06/05 10:15:32;;;;;;;10.93;6.13;;;;;;;22.96;100.00;98634.69;4995586;28;20133;-94
2023/06/05 10:18:00;;;;;;;13.05;5.75;;;;;;;23.47;98.57;98666.75;4982569;28;20043;-93
2023/06/05 10:20:27;;;;;;;12.95;5.82;;;;;;;23.58;100.00;98646.88;4983376;28;20407;-95
2023/06/05 10:22:54;;;;;;;13.25;6.60;;;;;;;23.45;96.26;98622.59;4984425;28;20050;-94
2023/06/05 10:25:21;;;;;;;13.20;6.00;;;;;;;23.39;97.69;98636.66;4982490;28;20046;-93
2023/06/05 10:28:11;;;;;;;9.23;5.55;;;;;;;23.16;95.85;98652.97;4994756;28;20041;-94
2023/06/05 10:31:09;;;;;;;11.02;6.03;;;;;;;23.17;97.81;98648.41;4988091;28;20093;-95
2023/06/05 10:33:51;;;;;;;12.32;5.57;;;;;;;23.41;95.45;98639.25;4982936;28;20069;-93
2023/06/05 10:36:32;;;;;;;10.70;5.43;;;;;;;23.72;94.10;98633.00;4983083;28;20077;-94
2023/06/05 10:39:00;;;;;;;11.05;5.63;;;;;;;23.71;93.16;98619.56;4999348;28;20042;-94
2023/06/05 10:41:26;;;;;;;11.73;5.53;;;;;;;23.75;89.13;98632.78;4996721;28;20054;-94
2023/06/05 10:43:53;;;;;;;11.85;6.18;;;;;;;23.42;94.35;98646.38;4985274;28;20062;-95
2023/06/05 10:46:30;;;;;;;10.02;5.85;;;;;;;23.18;93.57;98628.41;4982451;28;20063;-93
2023/06/05 10:49:17;;;;;;;9.18;5.15;;;;;;;23.67;92.81;98647.97;4995159;28;20551;-95
2023/06/05 10:51:44;;;;;;;12.68;6.15;;;;;;;23.63;91.17;98613.91;4981534;28;20050;-92
2023/06/05 10:54:14;;;;;;;12.63;5.95;;;;;;;23.86;87.18;98634.59;4994026;28;20507;-95
2023/06/05 10:56:55;;;;;;;12.32;5.22;;;;;;;23.23;91.72;98620.78;4981920;28;20042;-92
2023/06/05 10:59:22;;;;;;;8.85;4.97;;;;;;;23.30;91.01;98626.56;4986929;28;20046;-93
2023/06/05 11:02:22;;;;;;;11.25;5.45;;;;;;;22.70;95.43;98629.47;4985631;28;20230;-93
2023/06/05 11:05:10;;;;;;;11.23;5.35;;;;;;;23.19;91.02;98613.88;4986618;28;20041;-93
2023/06/05 11:07:37;;;;;;;;;;;;;;;24.14;89.38;98622.25;4982756;28;20042;-96
2023/06/05 11:10:24;;;;;;;12.13;5.47;;;;;;;24.55;85.39;98626.03;4991659;28;20016;-93
2023/06/05 11:13:00;;;;;;;11.43;6.00;;;;;;;24.90;87.25;98616.63;4978832;28;20412;-92
2023/06/05 11:15:40;;;;;;;10.02;5.28;;;;;;;25.45;83.57;98605.38;4979086;28;20452;-94
2023/06/05 11:18:44;;;;;;;12.38;5.85;;;;;;;24.90;85.24;98615.75;4983881;28;20042;-92
2023/06/05 11:21:12;;;;;;;11.35;5.95;;;;;;;24.59;85.41;98592.13;4980662;28;20042;-91
2023/06/05 11:23:38;;;;;;;10.70;5.83;;;;;;;24.69;86.08;98588.59;4985929;28;20041;-94
2023/06/05 11:26:38;;;;;;;13.75;6.40;;;;;;;25.05;83.43;98600.78;4984920;28;20038;-92
2023/06/05 11:29:12;;;;;;;9.95;5.90;;;;;;;24.81;86.15;98592.97;4984814;28;20041;-95
2023/06/05 11:31:38;;;;;;;28.65;14.63;;;;;;;24.97;85.28;98587.84;4984351;28;20554;-95
2023/06/05 11:34:12;;;;;;;11.32;6.15;;;;;;;25.18;82.77;98590.53;4985765;28;20042;-95
2023/06/05 11:36:40;;;;;;;9.32;5.57;;;;;;;25.54;79.05;98550.06;4983733;28;20046;-91